sensor_id;sensor_type;location;lat;lon;timestamp;temperature;humidity
23081;DHT22;11708;50.570;8.532;2023-04-24T00:00:54;11.70;99.90
23081;DHT22;11708;50.570;8.532;2023-04-24T00:03:25;11.60;99.90
23081;DHT22;11708;50.570;8.532;2023-04-24T00:05:51;11.70;99.90
23081;DHT22;11708;50.570;8.532;2023-04-24T00:08:17;11.60;99.90
23081;DHT22;11708;50.570;8.532;2023-04-24T00:10:43;11.60;99.90
23081;DHT22;11708;50.570;8.532;2023-04-24T00:13:09;11.60;99.90
23081;DHT22;11708;50.570;8.532;2023-04-24T00:15:35;11.60;99.90
23081;DHT22;11708;50.570;8.532;2023-04-24T00:18:00;11.60;99.90
23081;DHT22;11708;50.570;8.532;2023-04-24T00:20:27;11.50;99.90
23081;DHT22;11708;50.570;8.532;2023-04-24T00:22:55;11.50;99.90
23081;DHT22;11708;50.570;8.532;2023-04-24T00:25:20;11.50;99.90
23081;DHT22;11708;50.570;8.532;2023-04-24T00:27:46;11.50;99.90
23081;DHT22;11708;50.570;8.532;2023-04-24T00:30:11;11.60;99.90
23081;DHT22;11708;50.570;8.532;2023-04-24T00:32:37;11.60;99.90
23081;DHT22;11708;50.570;8.532;2023-04-24T00:35:03;11.30;99.90
23081;DHT22;11708;50.570;8.532;2023-04-24T00:37:28;11.40;99.90
23081;DHT22;11708;50.570;8.532;2023-04-24T00:39:54;11.50;99.90
23081;DHT22;11708;50.570;8.532;2023-04-24T00:42:20;11.50;99.90
23081;DHT22;11708;50.570;8.532;2023-04-24T00:44:46;11.40;99.90
23081;DHT22;11708;50.570;8.532;2023-04-24T00:47:12;11.50;99.90
23081;DHT22;11708;50.570;8.532;2023-04-24T00:49:38;11.50;99.90
23081;DHT22;11708;50.570;8.532;2023-04-24T00:52:04;11.50;99.90
23081;DHT22;11708;50.570;8.532;2023-04-24T00:54:33;11.50;99.90
23081;DHT22;11708;50.570;8.532;2023-04-24T00:56:58;11.60;99.90
23081;DHT22;11708;50.570;8.532;2023-04-24T00:59:25;11.50;99.90
23081;DHT22;11708;50.570;8.532;2023-04-24T01:01:50;11.60;99.90
23081;DHT22;11708;50.570;8.532;2023-04-24T01:04:17;11.60;99.90
23081;DHT22;11708;50.570;8.532;2023-04-24T01:06:43;11.60;99.90
23081;DHT22;11708;50.570;8.532;2023-04-24T01:09:10;11.70;99.90
23081;DHT22;11708;50.570;8.532;2023-04-24T01:11:37;11.80;99.90
23081;DHT22;11708;50.570;8.532;2023-04-24T01:14:03;11.80;99.90
23081;DHT22;11708;50.570;8.532;2023-04-24T01:16:29;11.80;99.90
23081;DHT22;11708;50.570;8.532;2023-04-24T01:18:54;11.90;99.90
23081;DHT22;11708;50.570;8.532;2023-04-24T01:21:21;11.90;99.90
23081;DHT22;11708;50.570;8.532;2023-04-24T01:23:46;11.90;99.90
23081;DHT22;11708;50.570;8.532;2023-04-24T01:26:14;12.00;99.90
23081;DHT22;11708;50.570;8.532;2023-04-24T01:28:40;12.00;99.90
23081;DHT22;11708;50.570;8.532;2023-04-24T01:31:06;12.10;99.90
23081;DHT22;11708;50.570;8.532;2023-04-24T01:33:32;12.10;99.90
23081;DHT22;11708;50.570;8.532;2023-04-24T01:35:58;12.10;99.90
23081;DHT22;11708;50.570;8.532;2023-04-24T01:38:23;12.10;99.90
23081;DHT22;11708;50.570;8.532;2023-04-24T01:40:50;12.10;99.90
23081;DHT22;11708;50.570;8.532;2023-04-24T01:43:16;12.10;99.90
23081;DHT22;11708;50.570;8.532;2023-04-24T01:45:42;12.10;99.90
23081;DHT22;11708;50.570;8.532;2023-04-24T01:48:07;12.10;99.90
23081;DHT22;11708;50.570;8.532;2023-04-24T01:50:33;12.10;99.90
23081;DHT22;11708;50.570;8.532;2023-04-24T01:52:59;12.00;99.90
23081;DHT22;11708;50.570;8.532;2023-04-24T01:55:24;12.00;99.90
23081;DHT22;11708;50.570;8.532;2023-04-24T01:57:52;11.90;99.90
23081;DHT22;11708;50.570;8.532;2023-04-24T02:00:18;11.90;99.90
23081;DHT22;11708;50.570;8.532;2023-04-24T02:02:44;11.80;99.90
23081;DHT22;11708;50.570;8.532;2023-04-24T02:05:10;11.90;99.90
23081;DHT22;11708;50.570;8.532;2023-04-24T02:07:36;11.70;99.90
23081;DHT22;11708;50.570;8.532;2023-04-24T02:10:02;11.60;99.90
23081;DHT22;11708;50.570;8.532;2023-04-24T02:12:29;11.50;99.90
23081;DHT22;11708;50.570;8.532;2023-04-24T02:14:55;11.10;99.90
23081;DHT22;11708;50.570;8.532;2023-04-24T02:17:20;11.30;99.90
23081;DHT22;11708;50.570;8.532;2023-04-24T02:19:46;11.30;99.90
23081;DHT22;11708;50.570;8.532;2023-04-24T02:22:12;11.30;99.90
23081;DHT22;11708;50.570;8.532;2023-04-24T02:24:38;11.30;99.90
23081;DHT22;11708;50.570;8.532;2023-04-24T02:27:04;11.20;99.90
23081;DHT22;11708;50.570;8.532;2023-04-24T02:29:30;11.30;99.90
23081;DHT22;11708;50.570;8.532;2023-04-24T02:31:55;11.20;99.90
23081;DHT22;11708;50.570;8.532;2023-04-24T02:34:21;11.20;99.90
23081;DHT22;11708;50.570;8.532;2023-04-24T02:36:48;11.20;99.90
23081;DHT22;11708;50.570;8.532;2023-04-24T02:39:14;11.20;99.90
23081;DHT22;11708;50.570;8.532;2023-04-24T02:41:45;11.20;99.90
23081;DHT22;11708;50.570;8.532;2023-04-24T02:44:10;11.10;99.90
23081;DHT22;11708;50.570;8.532;2023-04-24T02:46:36;11.10;99.90
23081;DHT22;11708;50.570;8.532;2023-04-24T02:49:03;11.10;99.90
23081;DHT22;11708;50.570;8.532;2023-04-24T02:51:29;11.00;99.90
23081;DHT22;11708;50.570;8.532;2023-04-24T02:53:54;11.00;99.90
23081;DHT22;11708;50.570;8.532;2023-04-24T02:56:20;11.00;99.90
23081;DHT22;11708;50.570;8.532;2023-04-24T02:58:46;11.00;99.90
23081;DHT22;11708;50.570;8.532;2023-04-24T03:01:11;11.00;99.90
23081;DHT22;11708;50.570;8.532;2023-04-24T03:03:38;11.00;99.90
23081;DHT22;11708;50.570;8.532;2023-04-24T03:06:04;11.00;99.90
23081;DHT22;11708;50.570;8.532;2023-04-24T03:08:31;11.00;99.90
23081;DHT22;11708;50.570;8.532;2023-04-24T03:10:57;10.90;99.90
23081;DHT22;11708;50.570;8.532;2023-04-24T03:13:22;10.90;99.90
23081;DHT22;11708;50.570;8.532;2023-04-24T03:15:48;10.90;99.90
23081;DHT22;11708;50.570;8.532;2023-04-24T03:18:13;10.90;99.90
23081;DHT22;11708;50.570;8.532;2023-04-24T03:20:39;10.90;99.90
23081;DHT22;11708;50.570;8.532;2023-04-24T03:23:05;10.80;99.90
23081;DHT22;11708;50.570;8.532;2023-04-24T03:25:30;10.80;99.90
23081;DHT22;11708;50.570;8.532;2023-04-24T03:27:56;10.80;99.90
23081;DHT22;11708;50.570;8.532;2023-04-24T03:30:21;10.80;99.90
23081;DHT22;11708;50.570;8.532;2023-04-24T03:32:47;10.80;99.90
23081;DHT22;11708;50.570;8.532;2023-04-24T03:35:12;10.80;99.90
23081;DHT22;11708;50.570;8.532;2023-04-24T03:37:38;10.80;99.90
23081;DHT22;11708;50.570;8.532;2023-04-24T03:40:05;10.80;99.90
23081;DHT22;11708;50.570;8.532;2023-04-24T03:42:32;10.80;99.90
23081;DHT22;11708;50.570;8.532;2023-04-24T03:44:57;11.10;99.90
23081;DHT22;11708;50.570;8.532;2023-04-24T03:47:23;10.80;99.90
23081;DHT22;11708;50.570;8.532;2023-04-24T03:49:49;11.80;99.90
23081;DHT22;11708;50.570;8.532;2023-04-24T03:52:14;10.80;99.90
23081;DHT22;11708;50.570;8.532;2023-04-24T03:54:40;10.80;99.90
23081;DHT22;11708;50.570;8.532;2023-04-24T03:57:05;10.70;99.90
23081;DHT22;11708;50.570;8.532;2023-04-24T03:59:31;10.80;99.90
23081;DHT22;11708;50.570;8.532;2023-04-24T04:01:56;10.70;99.90
23081;DHT22;11708;50.570;8.532;2023-04-24T04:04:22;10.70;99.90
23081;DHT22;11708;50.570;8.532;2023-04-24T04:06:47;10.70;99.90
23081;DHT22;11708;50.570;8.532;2023-04-24T04:09:13;10.70;99.90
23081;DHT22;11708;50.570;8.532;2023-04-24T04:11:39;10.70;99.90
23081;DHT22;11708;50.570;8.532;2023-04-24T04:14:04;10.70;99.90
23081;DHT22;11708;50.570;8.532;2023-04-24T04:16:30;10.70;99.90
23081;DHT22;11708;50.570;8.532;2023-04-24T04:18:56;10.60;99.90
23081;DHT22;11708;50.570;8.532;2023-04-24T04:21:22;10.50;99.90
23081;DHT22;11708;50.570;8.532;2023-04-24T04:23:47;10.60;99.90
23081;DHT22;11708;50.570;8.532;2023-04-24T04:26:14;10.50;99.90
23081;DHT22;11708;50.570;8.532;2023-04-24T04:28:39;10.50;99.90
23081;DHT22;11708;50.570;8.532;2023-04-24T04:31:05;10.50;99.90
23081;DHT22;11708;50.570;8.532;2023-04-24T04:33:33;10.50;99.90
23081;DHT22;11708;50.570;8.532;2023-04-24T04:35:59;10.40;99.90
23081;DHT22;11708;50.570;8.532;2023-04-24T04:38:25;10.40;99.90
23081;DHT22;11708;50.570;8.532;2023-04-24T04:40:55;10.30;99.90
23081;DHT22;11708;50.570;8.532;2023-04-24T04:43:22;10.30;99.90
23081;DHT22;11708;50.570;8.532;2023-04-24T04:45:49;10.20;99.90
23081;DHT22;11708;50.570;8.532;2023-04-24T04:48:17;10.10;99.90
23081;DHT22;11708;50.570;8.532;2023-04-24T04:50:44;10.10;99.90
23081;DHT22;11708;50.570;8.532;2023-04-24T04:53:09;10.10;99.90
23081;DHT22;11708;50.570;8.532;2023-04-24T04:55:36;10.00;99.90
23081;DHT22;11708;50.570;8.532;2023-04-24T04:58:03;10.10;99.90
23081;DHT22;11708;50.570;8.532;2023-04-24T05:00:28;10.00;99.90
23081;DHT22;11708;50.570;8.532;2023-04-24T05:02:59;10.00;99.90
23081;DHT22;11708;50.570;8.532;2023-04-24T05:05:24;10.00;99.90
23081;DHT22;11708;50.570;8.532;2023-04-24T05:07:50;10.00;99.90
23081;DHT22;11708;50.570;8.532;2023-04-24T05:10:15;10.00;99.90
23081;DHT22;11708;50.570;8.532;2023-04-24T05:12:41;10.00;99.90
23081;DHT22;11708;50.570;8.532;2023-04-24T05:15:07;10.20;99.90
23081;DHT22;11708;50.570;8.532;2023-04-24T05:17:32;9.90;99.90
23081;DHT22;11708;50.570;8.532;2023-04-24T05:19:58;9.80;99.90
23081;DHT22;11708;50.570;8.532;2023-04-24T05:22:23;9.80;99.90
23081;DHT22;11708;50.570;8.532;2023-04-24T05:24:49;9.90;99.90
23081;DHT22;11708;50.570;8.532;2023-04-24T05:27:15;9.90;99.90
23081;DHT22;11708;50.570;8.532;2023-04-24T05:29:40;9.90;99.90
23081;DHT22;11708;50.570;8.532;2023-04-24T05:32:07;9.80;99.90
23081;DHT22;11708;50.570;8.532;2023-04-24T05:34:32;9.90;99.90
23081;DHT22;11708;50.570;8.532;2023-04-24T05:36:58;9.90;99.90
23081;DHT22;11708;50.570;8.532;2023-04-24T05:39:23;9.90;99.90
23081;DHT22;11708;50.570;8.532;2023-04-24T05:41:50;9.90;99.90
23081;DHT22;11708;50.570;8.532;2023-04-24T05:44:16;9.90;99.90
23081;DHT22;11708;50.570;8.532;2023-04-24T05:46:41;10.00;99.90
23081;DHT22;11708;50.570;8.532;2023-04-24T05:49:07;10.00;99.90
23081;DHT22;11708;50.570;8.532;2023-04-24T05:51:33;10.00;99.90
23081;DHT22;11708;50.570;8.532;2023-04-24T05:53:58;10.00;99.90
23081;DHT22;11708;50.570;8.532;2023-04-24T05:56:24;10.00;99.90
23081;DHT22;11708;50.570;8.532;2023-04-24T05:58:49;10.00;99.90
23081;DHT22;11708;50.570;8.532;2023-04-24T06:01:15;10.00;99.90
23081;DHT22;11708;50.570;8.532;2023-04-24T06:03:41;10.10;99.90
23081;DHT22;11708;50.570;8.532;2023-04-24T06:06:07;10.10;99.90
23081;DHT22;11708;50.570;8.532;2023-04-24T06:08:33;10.00;99.90
23081;DHT22;11708;50.570;8.532;2023-04-24T06:10:59;10.10;99.90
23081;DHT22;11708;50.570;8.532;2023-04-24T06:13:24;10.10;99.90
23081;DHT22;11708;50.570;8.532;2023-04-24T06:15:50;10.10;99.90
23081;DHT22;11708;50.570;8.532;2023-04-24T06:18:16;10.00;99.90
23081;DHT22;11708;50.570;8.532;2023-04-24T06:20:42;10.00;99.90
23081;DHT22;11708;50.570;8.532;2023-04-24T06:23:07;10.00;99.90
23081;DHT22;11708;50.570;8.532;2023-04-24T06:25:33;10.00;99.90
23081;DHT22;11708;50.570;8.532;2023-04-24T06:27:58;10.10;99.90
23081;DHT22;11708;50.570;8.532;2023-04-24T06:30:24;10.10;99.90
23081;DHT22;11708;50.570;8.532;2023-04-24T06:32:50;10.10;99.90
23081;DHT22;11708;50.570;8.532;2023-04-24T06:35:16;10.10;99.90
23081;DHT22;11708;50.570;8.532;2023-04-24T06:37:42;10.20;99.90
23081;DHT22;11708;50.570;8.532;2023-04-24T06:40:09;10.20;99.90
23081;DHT22;11708;50.570;8.532;2023-04-24T06:42:35;10.20;99.90
23081;DHT22;11708;50.570;8.532;2023-04-24T06:45:01;10.00;99.90
23081;DHT22;11708;50.570;8.532;2023-04-24T06:47:27;10.30;99.90
23081;DHT22;11708;50.570;8.532;2023-04-24T06:49:53;10.30;99.90
23081;DHT22;11708;50.570;8.532;2023-04-24T06:52:19;10.30;99.90
23081;DHT22;11708;50.570;8.532;2023-04-24T06:54:44;10.40;99.90
23081;DHT22;11708;50.570;8.532;2023-04-24T06:57:10;10.40;99.90
23081;DHT22;11708;50.570;8.532;2023-04-24T06:59:36;10.50;99.90
23081;DHT22;11708;50.570;8.532;2023-04-24T07:02:02;10.60;99.90
23081;DHT22;11708;50.570;8.532;2023-04-24T07:04:28;10.60;99.90
23081;DHT22;11708;50.570;8.532;2023-04-24T07:06:54;10.60;99.90
23081;DHT22;11708;50.570;8.532;2023-04-24T07:09:21;10.50;99.90
23081;DHT22;11708;50.570;8.532;2023-04-24T07:11:47;10.60;99.90
23081;DHT22;11708;50.570;8.532;2023-04-24T07:14:13;10.50;99.90
23081;DHT22;11708;50.570;8.532;2023-04-24T07:16:39;10.60;99.90
23081;DHT22;11708;50.570;8.532;2023-04-24T07:19:05;10.70;99.90
23081;DHT22;11708;50.570;8.532;2023-04-24T07:21:31;10.70;99.90
23081;DHT22;11708;50.570;8.532;2023-04-24T07:23:58;10.70;99.90
23081;DHT22;11708;50.570;8.532;2023-04-24T07:26:23;10.70;99.90
23081;DHT22;11708;50.570;8.532;2023-04-24T07:28:49;10.70;99.90
23081;DHT22;11708;50.570;8.532;2023-04-24T07:31:14;10.80;99.90
23081;DHT22;11708;50.570;8.532;2023-04-24T07:33:40;10.80;99.90
23081;DHT22;11708;50.570;8.532;2023-04-24T07:36:06;10.80;99.90
23081;DHT22;11708;50.570;8.532;2023-04-24T07:38:33;10.90;99.90
23081;DHT22;11708;50.570;8.532;2023-04-24T07:40:59;11.10;99.90
23081;DHT22;11708;50.570;8.532;2023-04-24T07:43:24;11.20;99.90
23081;DHT22;11708;50.570;8.532;2023-04-24T07:45:51;11.10;99.90
23081;DHT22;11708;50.570;8.532;2023-04-24T07:48:18;11.10;99.90
23081;DHT22;11708;50.570;8.532;2023-04-24T07:50:45;11.10;99.90
23081;DHT22;11708;50.570;8.532;2023-04-24T07:53:10;11.10;99.90
23081;DHT22;11708;50.570;8.532;2023-04-24T07:55:37;11.20;99.90
23081;DHT22;11708;50.570;8.532;2023-04-24T07:58:03;11.30;99.90
23081;DHT22;11708;50.570;8.532;2023-04-24T08:00:29;11.30;99.90
23081;DHT22;11708;50.570;8.532;2023-04-24T08:02:54;11.40;99.90
23081;DHT22;11708;50.570;8.532;2023-04-24T08:05:20;11.50;99.90
23081;DHT22;11708;50.570;8.532;2023-04-24T08:07:46;11.50;99.90
23081;DHT22;11708;50.570;8.532;2023-04-24T08:10:14;11.60;99.90
23081;DHT22;11708;50.570;8.532;2023-04-24T08:12:40;11.40;99.90
23081;DHT22;11708;50.570;8.532;2023-04-24T08:15:06;11.10;99.90
23081;DHT22;11708;50.570;8.532;2023-04-24T08:17:33;11.30;99.90
23081;DHT22;11708;50.570;8.532;2023-04-24T08:19:59;11.40;99.90
23081;DHT22;11708;50.570;8.532;2023-04-24T08:22:27;11.40;99.90
23081;DHT22;11708;50.570;8.532;2023-04-24T08:27:20;11.40;99.90
23081;DHT22;11708;50.570;8.532;2023-04-24T08:29:45;11.30;99.90
23081;DHT22;11708;50.570;8.532;2023-04-24T08:32:12;11.30;99.90
23081;DHT22;11708;50.570;8.532;2023-04-24T08:34:37;11.20;99.90
23081;DHT22;11708;50.570;8.532;2023-04-24T08:37:04;11.20;99.90
23081;DHT22;11708;50.570;8.532;2023-04-24T08:39:30;11.20;99.90
23081;DHT22;11708;50.570;8.532;2023-04-24T08:41:56;11.20;99.90
23081;DHT22;11708;50.570;8.532;2023-04-24T08:44:21;11.10;99.90
23081;DHT22;11708;50.570;8.532;2023-04-24T08:46:48;11.10;99.90
23081;DHT22;11708;50.570;8.532;2023-04-24T08:49:14;11.10;99.90
23081;DHT22;11708;50.570;8.532;2023-04-24T08:51:44;11.10;99.90
23081;DHT22;11708;50.570;8.532;2023-04-24T08:54:12;11.00;99.90
23081;DHT22;11708;50.570;8.532;2023-04-24T08:56:40;10.90;99.90
23081;DHT22;11708;50.570;8.532;2023-04-24T08:59:08;10.80;99.90
23081;DHT22;11708;50.570;8.532;2023-04-24T09:01:34;10.90;99.90
23081;DHT22;11708;50.570;8.532;2023-04-24T09:04:03;10.90;99.90
23081;DHT22;11708;50.570;8.532;2023-04-24T09:06:30;11.00;99.90
23081;DHT22;11708;50.570;8.532;2023-04-24T09:09:00;11.00;99.90
23081;DHT22;11708;50.570;8.532;2023-04-24T09:11:29;11.00;99.90
23081;DHT22;11708;50.570;8.532;2023-04-24T09:13:56;11.10;99.90
23081;DHT22;11708;50.570;8.532;2023-04-24T09:16:22;11.10;99.90
23081;DHT22;11708;50.570;8.532;2023-04-24T09:18:50;11.20;99.90
23081;DHT22;11708;50.570;8.532;2023-04-24T09:21:15;11.20;99.90
23081;DHT22;11708;50.570;8.532;2023-04-24T09:23:41;11.30;99.90
23081;DHT22;11708;50.570;8.532;2023-04-24T09:26:09;11.40;99.90
23081;DHT22;11708;50.570;8.532;2023-04-24T09:28:39;11.60;99.90
23081;DHT22;11708;50.570;8.532;2023-04-24T09:31:13;11.70;99.90
23081;DHT22;11708;50.570;8.532;2023-04-24T09:34:02;11.90;99.90
23081;DHT22;11708;50.570;8.532;2023-04-24T09:36:35;11.80;99.90
23081;DHT22;11708;50.570;8.532;2023-04-24T09:39:07;11.80;99.90
23081;DHT22;11708;50.570;8.532;2023-04-24T09:41:33;11.70;99.90
23081;DHT22;11708;50.570;8.532;2023-04-24T09:44:15;11.70;99.90
23081;DHT22;11708;50.570;8.532;2023-04-24T09:46:42;11.40;99.90
23081;DHT22;11708;50.570;8.532;2023-04-24T09:49:13;11.30;99.90
23081;DHT22;11708;50.570;8.532;2023-04-24T09:51:40;11.00;99.90
23081;DHT22;11708;50.570;8.532;2023-04-24T09:54:16;10.90;99.90
23081;DHT22;11708;50.570;8.532;2023-04-24T09:56:43;10.80;99.90
23081;DHT22;11708;50.570;8.532;2023-04-24T09:59:10;10.60;99.90
23081;DHT22;11708;50.570;8.532;2023-04-24T10:01:36;10.60;99.90
23081;DHT22;11708;50.570;8.532;2023-04-24T10:04:03;10.50;99.90
23081;DHT22;11708;50.570;8.532;2023-04-24T10:06:35;10.40;99.90
23081;DHT22;11708;50.570;8.532;2023-04-24T10:09:02;10.20;99.90
23081;DHT22;11708;50.570;8.532;2023-04-24T10:11:29;10.20;99.90
23081;DHT22;11708;50.570;8.532;2023-04-24T10:13:55;10.10;99.90
23081;DHT22;11708;50.570;8.532;2023-04-24T10:16:23;10.10;99.90
23081;DHT22;11708;50.570;8.532;2023-04-24T10:18:49;10.10;99.90
23081;DHT22;11708;50.570;8.532;2023-04-24T10:21:15;10.10;99.90
23081;DHT22;11708;50.570;8.532;2023-04-24T10:23:42;10.20;99.90
23081;DHT22;11708;50.570;8.532;2023-04-24T10:26:09;10.30;99.90
23081;DHT22;11708;50.570;8.532;2023-04-24T10:28:36;10.40;99.90
23081;DHT22;11708;50.570;8.532;2023-04-24T10:31:02;10.50;99.90
23081;DHT22;11708;50.570;8.532;2023-04-24T10:33:29;10.50;99.90
23081;DHT22;11708;50.570;8.532;2023-04-24T10:35:56;10.70;99.90
23081;DHT22;11708;50.570;8.532;2023-04-24T10:38:25;10.80;99.90
23081;DHT22;11708;50.570;8.532;2023-04-24T10:40:57;10.90;99.90
23081;DHT22;11708;50.570;8.532;2023-04-24T10:43:33;11.00;99.90
23081;DHT22;11708;50.570;8.532;2023-04-24T10:46:05;11.20;99.90
23081;DHT22;11708;50.570;8.532;2023-04-24T10:48:32;11.20;99.90
23081;DHT22;11708;50.570;8.532;2023-04-24T10:50:57;11.30;99.90
23081;DHT22;11708;50.570;8.532;2023-04-24T10:53:27;11.40;99.90
23081;DHT22;11708;50.570;8.532;2023-04-24T10:58:37;11.50;99.90
23081;DHT22;11708;50.570;8.532;2023-04-24T11:01:04;11.50;99.90
23081;DHT22;11708;50.570;8.532;2023-04-24T11:03:31;11.40;99.90
23081;DHT22;11708;50.570;8.532;2023-04-24T11:06:06;11.30;99.90
23081;DHT22;11708;50.570;8.532;2023-04-24T11:08:37;11.10;99.90
23081;DHT22;11708;50.570;8.532;2023-04-24T11:11:14;11.10;99.90
23081;DHT22;11708;50.570;8.532;2023-04-24T11:19:09;11.00;99.90
23081;DHT22;11708;50.570;8.532;2023-04-24T11:21:49;10.90;99.90
23081;DHT22;11708;50.570;8.532;2023-04-24T11:24:31;11.00;99.90
23081;DHT22;11708;50.570;8.532;2023-04-24T11:27:17;11.10;99.90
23081;DHT22;11708;50.570;8.532;2023-04-24T11:34:59;11.10;99.90
23081;DHT22;11708;50.570;8.532;2023-04-24T11:37:40;11.10;99.90
23081;DHT22;11708;50.570;8.532;2023-04-24T11:40:10;11.10;99.90
23081;DHT22;11708;50.570;8.532;2023-04-24T11:42:38;11.10;99.90
23081;DHT22;11708;50.570;8.532;2023-04-24T11:45:27;11.20;99.90
23081;DHT22;11708;50.570;8.532;2023-04-24T11:47:53;11.00;99.90
23081;DHT22;11708;50.570;8.532;2023-04-24T11:50:22;11.20;99.90
23081;DHT22;11708;50.570;8.532;2023-04-24T11:52:49;11.30;99.90
23081;DHT22;11708;50.570;8.532;2023-04-24T11:57:45;10.90;99.90
23081;DHT22;11708;50.570;8.532;2023-04-24T12:02:43;10.50;99.90
23081;DHT22;11708;50.570;8.532;2023-04-24T12:05:12;10.10;99.90
23081;DHT22;11708;50.570;8.532;2023-04-24T12:07:45;10.30;99.90
23081;DHT22;11708;50.570;8.532;2023-04-24T12:10:12;10.30;99.90
23081;DHT22;11708;50.570;8.532;2023-04-24T12:12:37;10.40;99.90
23081;DHT22;11708;50.570;8.532;2023-04-24T12:15:08;10.80;99.90
23081;DHT22;11708;50.570;8.532;2023-04-24T12:17:34;10.50;99.90
23081;DHT22;11708;50.570;8.532;2023-04-24T12:20:04;10.70;99.90
23081;DHT22;11708;50.570;8.532;2023-04-24T12:25:17;11.00;99.90
23081;DHT22;11708;50.570;8.532;2023-04-24T12:27:44;11.10;99.90
23081;DHT22;11708;50.570;8.532;2023-04-24T12:30:16;11.10;99.90
23081;DHT22;11708;50.570;8.532;2023-04-24T12:32:49;11.10;99.90
23081;DHT22;11708;50.570;8.532;2023-04-24T12:35:22;11.10;99.90
23081;DHT22;11708;50.570;8.532;2023-04-24T12:37:49;11.00;99.90
23081;DHT22;11708;50.570;8.532;2023-04-24T12:40:17;10.90;99.90
23081;DHT22;11708;50.570;8.532;2023-04-24T12:45:09;10.70;99.90
23081;DHT22;11708;50.570;8.532;2023-04-24T12:47:38;10.90;99.90
23081;DHT22;11708;50.570;8.532;2023-04-24T12:50:04;10.90;99.90
23081;DHT22;11708;50.570;8.532;2023-04-24T12:52:32;11.00;99.90
23081;DHT22;11708;50.570;8.532;2023-04-24T12:54:59;11.30;99.90
23081;DHT22;11708;50.570;8.532;2023-04-24T12:57:27;11.00;99.90
23081;DHT22;11708;50.570;8.532;2023-04-24T12:59:55;11.00;99.90
23081;DHT22;11708;50.570;8.532;2023-04-24T13:02:22;11.00;99.90
23081;DHT22;11708;50.570;8.532;2023-04-24T13:04:49;11.00;99.90
23081;DHT22;11708;50.570;8.532;2023-04-24T13:07:16;11.00;99.90
23081;DHT22;11708;50.570;8.532;2023-04-24T13:09:42;11.10;99.90
23081;DHT22;11708;50.570;8.532;2023-04-24T13:12:09;11.10;99.90
23081;DHT22;11708;50.570;8.532;2023-04-24T13:14:35;11.10;99.90
23081;DHT22;11708;50.570;8.532;2023-04-24T13:17:01;11.10;99.90
23081;DHT22;11708;50.570;8.532;2023-04-24T13:19:27;11.20;99.90
23081;DHT22;11708;50.570;8.532;2023-04-24T13:21:55;11.10;99.90
23081;DHT22;11708;50.570;8.532;2023-04-24T13:24:25;11.00;99.90
23081;DHT22;11708;50.570;8.532;2023-04-24T13:26:52;11.00;99.90
23081;DHT22;11708;50.570;8.532;2023-04-24T13:29:17;11.00;99.90
23081;DHT22;11708;50.570;8.532;2023-04-24T13:31:43;10.90;99.90
23081;DHT22;11708;50.570;8.532;2023-04-24T13:34:09;10.80;99.90
23081;DHT22;11708;50.570;8.532;2023-04-24T13:36:34;10.80;99.90
23081;DHT22;11708;50.570;8.532;2023-04-24T13:39:00;10.80;99.90
23081;DHT22;11708;50.570;8.532;2023-04-24T13:41:26;10.90;99.90
23081;DHT22;11708;50.570;8.532;2023-04-24T13:43:52;10.80;99.90
23081;DHT22;11708;50.570;8.532;2023-04-24T13:46:17;10.90;99.90
23081;DHT22;11708;50.570;8.532;2023-04-24T13:48:43;11.00;99.90
23081;DHT22;11708;50.570;8.532;2023-04-24T13:51:08;11.20;99.90
23081;DHT22;11708;50.570;8.532;2023-04-24T13:53:34;11.40;99.90
23081;DHT22;11708;50.570;8.532;2023-04-24T13:56:03;11.40;99.90
23081;DHT22;11708;50.570;8.532;2023-04-24T13:58:29;11.30;99.90
23081;DHT22;11708;50.570;8.532;2023-04-24T14:00:55;11.40;99.90
23081;DHT22;11708;50.570;8.532;2023-04-24T14:03:20;11.40;99.90
23081;DHT22;11708;50.570;8.532;2023-04-24T14:05:46;11.30;99.90
23081;DHT22;11708;50.570;8.532;2023-04-24T14:08:12;11.30;99.90
23081;DHT22;11708;50.570;8.532;2023-04-24T14:10:37;11.40;99.90
23081;DHT22;11708;50.570;8.532;2023-04-24T14:13:03;11.50;99.90
23081;DHT22;11708;50.570;8.532;2023-04-24T14:15:28;11.90;99.90
23081;DHT22;11708;50.570;8.532;2023-04-24T14:17:55;12.20;99.90
23081;DHT22;11708;50.570;8.532;2023-04-24T14:20:20;12.30;99.90
23081;DHT22;11708;50.570;8.532;2023-04-24T14:22:46;12.50;99.90
23081;DHT22;11708;50.570;8.532;2023-04-24T14:25:11;12.90;99.90
23081;DHT22;11708;50.570;8.532;2023-04-24T14:27:37;12.60;99.90
23081;DHT22;11708;50.570;8.532;2023-04-24T14:30:04;12.80;99.90
23081;DHT22;11708;50.570;8.532;2023-04-24T14:32:29;12.70;99.90
23081;DHT22;11708;50.570;8.532;2023-04-24T14:34:55;12.60;99.90
23081;DHT22;11708;50.570;8.532;2023-04-24T14:37:20;12.60;99.90
23081;DHT22;11708;50.570;8.532;2023-04-24T14:39:46;12.50;99.90
23081;DHT22;11708;50.570;8.532;2023-04-24T14:42:11;13.20;99.90
23081;DHT22;11708;50.570;8.532;2023-04-24T14:44:37;12.50;99.90
23081;DHT22;11708;50.570;8.532;2023-04-24T14:47:02;12.50;99.90
23081;DHT22;11708;50.570;8.532;2023-04-24T14:49:28;12.40;99.90
23081;DHT22;11708;50.570;8.532;2023-04-24T14:51:54;12.30;99.90
23081;DHT22;11708;50.570;8.532;2023-04-24T14:54:19;12.30;99.90
23081;DHT22;11708;50.570;8.532;2023-04-24T14:56:48;12.20;99.90
23081;DHT22;11708;50.570;8.532;2023-04-24T14:59:14;12.10;99.90
23081;DHT22;11708;50.570;8.532;2023-04-24T15:01:40;12.10;99.90
23081;DHT22;11708;50.570;8.532;2023-04-24T15:04:05;12.10;99.90
23081;DHT22;11708;50.570;8.532;2023-04-24T15:06:31;12.00;99.90
23081;DHT22;11708;50.570;8.532;2023-04-24T15:08:57;11.80;99.90
23081;DHT22;11708;50.570;8.532;2023-04-24T15:11:23;11.60;99.90
23081;DHT22;11708;50.570;8.532;2023-04-24T15:13:49;11.40;99.90
23081;DHT22;11708;50.570;8.532;2023-04-24T15:16:15;11.40;99.90
23081;DHT22;11708;50.570;8.532;2023-04-24T15:18:40;11.30;99.90
23081;DHT22;11708;50.570;8.532;2023-04-24T15:21:06;11.30;99.90
23081;DHT22;11708;50.570;8.532;2023-04-24T15:23:32;11.30;99.90
23081;DHT22;11708;50.570;8.532;2023-04-24T15:25:57;11.30;99.90
23081;DHT22;11708;50.570;8.532;2023-04-24T15:28:24;11.40;99.90
23081;DHT22;11708;50.570;8.532;2023-04-24T15:30:50;11.70;99.90
23081;DHT22;11708;50.570;8.532;2023-04-24T15:33:15;12.10;99.90
23081;DHT22;11708;50.570;8.532;2023-04-24T15:35:42;12.60;99.90
23081;DHT22;11708;50.570;8.532;2023-04-24T15:38:08;13.00;99.90
23081;DHT22;11708;50.570;8.532;2023-04-24T15:40:33;13.20;99.90
23081;DHT22;11708;50.570;8.532;2023-04-24T15:42:59;13.20;99.90
23081;DHT22;11708;50.570;8.532;2023-04-24T15:45:25;13.20;99.90
23081;DHT22;11708;50.570;8.532;2023-04-24T15:47:51;13.00;99.90
23081;DHT22;11708;50.570;8.532;2023-04-24T15:50:16;12.80;99.90
23081;DHT22;11708;50.570;8.532;2023-04-24T15:52:43;12.60;99.90
23081;DHT22;11708;50.570;8.532;2023-04-24T15:55:09;12.90;99.90